sensor_id;sensor_type;location;lat;lon;timestamp;P1;durP1;ratioP1;P2;durP2;ratioP2
77520;SDS011;66633;47.628;19.158;2023-06-01T00:01:26;8.85;;;4.07;;
77520;SDS011;66633;47.628;19.158;2023-06-01T00:03:58;9.52;;;4.45;;
77520;SDS011;66633;47.628;19.158;2023-06-01T00:06:23;8.43;;;4.28;;
77520;SDS011;66633;47.628;19.158;2023-06-01T00:08:50;10.98;;;5.13;;
77520;SDS011;66633;47.628;19.158;2023-06-01T00:11:16;7.07;;;4.45;;
77520;SDS011;66633;47.628;19.158;2023-06-01T00:13:41;7.43;;;4.68;;
77520;SDS011;66633;47.628;19.158;2023-06-01T00:16:07;8.02;;;4.60;;
77520;SDS011;66633;47.628;19.158;2023-06-01T00:18:32;8.10;;;4.47;;
77520;SDS011;66633;47.628;19.158;2023-06-01T00:20:58;8.55;;;4.50;;
77520;SDS011;66633;47.628;19.158;2023-06-01T00:23:25;6.95;;;3.92;;
77520;SDS011;66633;47.628;19.158;2023-06-01T00:25:50;7.55;;;4.35;;
77520;SDS011;66633;47.628;19.158;2023-06-01T00:28:16;7.32;;;4.43;;
77520;SDS011;66633;47.628;19.158;2023-06-01T00:30:41;8.73;;;4.30;;
77520;SDS011;66633;47.628;19.158;2023-06-01T00:33:07;9.00;;;4.80;;
77520;SDS011;66633;47.628;19.158;2023-06-01T00:35:32;9.18;;;4.82;;
77520;SDS011;66633;47.628;19.158;2023-06-01T00:37:57;8.43;;;4.43;;
77520;SDS011;66633;47.628;19.158;2023-06-01T00:40:23;7.57;;;4.95;;
77520;SDS011;66633;47.628;19.158;2023-06-01T00:42:48;10.07;;;4.63;;
77520;SDS011;66633;47.628;19.158;2023-06-01T00:45:13;7.93;;;4.80;;
77520;SDS011;66633;47.628;19.158;2023-06-01T00:47:40;8.48;;;4.72;;
77520;SDS011;66633;47.628;19.158;2023-06-01T00:50:07;7.78;;;4.93;;
77520;SDS011;66633;47.628;19.158;2023-06-01T00:52:33;10.23;;;5.22;;
77520;SDS011;66633;47.628;19.158;2023-06-01T00:55:01;10.35;;;5.53;;
77520;SDS011;66633;47.628;19.158;2023-06-01T00:57:28;9.65;;;5.25;;
77520;SDS011;66633;47.628;19.158;2023-06-01T00:59:54;10.00;;;5.30;;
77520;SDS011;66633;47.628;19.158;2023-06-01T01:02:20;9.27;;;5.63;;
77520;SDS011;66633;47.628;19.158;2023-06-01T01:04:46;10.20;;;6.13;;
77520;SDS011;66633;47.628;19.158;2023-06-01T01:07:53;9.43;;;5.78;;
77520;SDS011;66633;47.628;19.158;2023-06-01T01:12:54;9.73;;;4.85;;
77520;SDS011;66633;47.628;19.158;2023-06-01T01:15:29;8.45;;;4.60;;
77520;SDS011;66633;47.628;19.158;2023-06-01T01:18:04;7.45;;;4.07;;
77520;SDS011;66633;47.628;19.158;2023-06-01T01:20:41;10.18;;;5.40;;
77520;SDS011;66633;47.628;19.158;2023-06-01T01:28:41;9.32;;;4.35;;
77520;SDS011;66633;47.628;19.158;2023-06-01T01:31:16;9.18;;;4.97;;
77520;SDS011;66633;47.628;19.158;2023-06-01T01:33:44;7.13;;;4.15;;
77520;SDS011;66633;47.628;19.158;2023-06-01T01:36:11;8.60;;;5.13;;
77520;SDS011;66633;47.628;19.158;2023-06-01T01:38:37;8.68;;;4.82;;
77520;SDS011;66633;47.628;19.158;2023-06-01T01:41:03;8.40;;;5.00;;
77520;SDS011;66633;47.628;19.158;2023-06-01T01:43:28;10.25;;;4.88;;
77520;SDS011;66633;47.628;19.158;2023-06-01T01:46:11;7.78;;;4.18;;
77520;SDS011;66633;47.628;19.158;2023-06-01T01:51:52;7.43;;;4.20;;
77520;SDS011;66633;47.628;19.158;2023-06-01T01:54:51;7.35;;;4.15;;
77520;SDS011;66633;47.628;19.158;2023-06-01T01:57:18;8.20;;;4.45;;
77520;SDS011;66633;47.628;19.158;2023-06-01T01:59:48;7.07;;;4.47;;
77520;SDS011;66633;47.628;19.158;2023-06-01T02:02:14;6.65;;;4.05;;
77520;SDS011;66633;47.628;19.158;2023-06-01T02:04:43;8.30;;;4.68;;
77520;SDS011;66633;47.628;19.158;2023-06-01T02:07:13;9.27;;;4.90;;
77520;SDS011;66633;47.628;19.158;2023-06-01T02:09:40;9.27;;;5.63;;
77520;SDS011;66633;47.628;19.158;2023-06-01T02:12:06;8.65;;;5.07;;
77520;SDS011;66633;47.628;19.158;2023-06-01T02:14:32;8.63;;;5.20;;
77520;SDS011;66633;47.628;19.158;2023-06-01T02:16:58;9.30;;;5.38;;
77520;SDS011;66633;47.628;19.158;2023-06-01T02:19:25;7.97;;;4.90;;
77520;SDS011;66633;47.628;19.158;2023-06-01T02:21:51;9.65;;;5.72;;
77520;SDS011;66633;47.628;19.158;2023-06-01T02:24:17;8.20;;;4.72;;
77520;SDS011;66633;47.628;19.158;2023-06-01T02:26:42;11.38;;;5.65;;
77520;SDS011;66633;47.628;19.158;2023-06-01T02:29:08;9.27;;;5.30;;
77520;SDS011;66633;47.628;19.158;2023-06-01T02:31:34;10.05;;;5.65;;
77520;SDS011;66633;47.628;19.158;2023-06-01T02:34:00;10.32;;;5.63;;
77520;SDS011;66633;47.628;19.158;2023-06-01T02:36:26;9.13;;;4.82;;
77520;SDS011;66633;47.628;19.158;2023-06-01T02:38:53;8.73;;;5.40;;
77520;SDS011;66633;47.628;19.158;2023-06-01T02:41:18;10.43;;;6.18;;
77520;SDS011;66633;47.628;19.158;2023-06-01T02:43:44;10.80;;;6.40;;
77520;SDS011;66633;47.628;19.158;2023-06-01T02:46:09;8.18;;;5.00;;
77520;SDS011;66633;47.628;19.158;2023-06-01T02:48:34;9.35;;;5.00;;
77520;SDS011;66633;47.628;19.158;2023-06-01T02:51:00;8.82;;;4.72;;
77520;SDS011;66633;47.628;19.158;2023-06-01T02:53:26;9.07;;;4.63;;
77520;SDS011;66633;47.628;19.158;2023-06-01T02:55:53;7.65;;;4.50;;
77520;SDS011;66633;47.628;19.158;2023-06-01T02:58:18;8.40;;;4.88;;
77520;SDS011;66633;47.628;19.158;2023-06-01T03:00:44;8.27;;;4.72;;
77520;SDS011;66633;47.628;19.158;2023-06-01T03:03:09;8.43;;;4.57;;
77520;SDS011;66633;47.628;19.158;2023-06-01T03:05:35;8.57;;;4.40;;
77520;SDS011;66633;47.628;19.158;2023-06-01T03:08:01;8.88;;;5.15;;
77520;SDS011;66633;47.628;19.158;2023-06-01T03:10:27;7.03;;;4.40;;
77520;SDS011;66633;47.628;19.158;2023-06-01T03:12:52;8.38;;;4.72;;
77520;SDS011;66633;47.628;19.158;2023-06-01T03:15:18;8.50;;;4.70;;
77520;SDS011;66633;47.628;19.158;2023-06-01T03:17:43;7.10;;;4.03;;
77520;SDS011;66633;47.628;19.158;2023-06-01T03:20:09;10.43;;;4.25;;
77520;SDS011;66633;47.628;19.158;2023-06-01T03:22:46;8.52;;;4.65;;
77520;SDS011;66633;47.628;19.158;2023-06-01T03:25:11;8.10;;;4.07;;
77520;SDS011;66633;47.628;19.158;2023-06-01T03:27:38;7.72;;;4.07;;
77520;SDS011;66633;47.628;19.158;2023-06-01T03:30:04;8.85;;;4.20;;
77520;SDS011;66633;47.628;19.158;2023-06-01T03:32:35;10.23;;;5.25;;
77520;SDS011;66633;47.628;19.158;2023-06-01T03:35:04;10.35;;;5.43;;
77520;SDS011;66633;47.628;19.158;2023-06-01T03:37:32;8.32;;;4.90;;
77520;SDS011;66633;47.628;19.158;2023-06-01T03:39:59;9.43;;;4.97;;
77520;SDS011;66633;47.628;19.158;2023-06-01T03:42:25;8.48;;;5.25;;
77520;SDS011;66633;47.628;19.158;2023-06-01T03:44:50;9.52;;;5.30;;
77520;SDS011;66633;47.628;19.158;2023-06-01T03:47:16;7.43;;;4.65;;
77520;SDS011;66633;47.628;19.158;2023-06-01T03:49:41;7.55;;;4.65;;
77520;SDS011;66633;47.628;19.158;2023-06-01T03:52:06;8.77;;;5.32;;
77520;SDS011;66633;47.628;19.158;2023-06-01T03:54:32;9.13;;;5.28;;
77520;SDS011;66633;47.628;19.158;2023-06-01T03:56:57;8.57;;;5.03;;
77520;SDS011;66633;47.628;19.158;2023-06-01T03:59:23;8.82;;;5.40;;
77520;SDS011;66633;47.628;19.158;2023-06-01T04:01:49;9.02;;;5.40;;
77520;SDS011;66633;47.628;19.158;2023-06-01T04:04:14;9.95;;;5.03;;
77520;SDS011;66633;47.628;19.158;2023-06-01T04:06:42;12.23;;;5.53;;
77520;SDS011;66633;47.628;19.158;2023-06-01T04:09:10;9.35;;;5.40;;
77520;SDS011;66633;47.628;19.158;2023-06-01T04:11:36;11.43;;;5.72;;
77520;SDS011;66633;47.628;19.158;2023-06-01T04:14:01;9.27;;;5.47;;
77520;SDS011;66633;47.628;19.158;2023-06-01T04:16:27;10.73;;;6.00;;
77520;SDS011;66633;47.628;19.158;2023-06-01T04:18:52;10.63;;;5.30;;
77520;SDS011;66633;47.628;19.158;2023-06-01T04:21:21;10.80;;;6.13;;
77520;SDS011;66633;47.628;19.158;2023-06-01T04:23:47;11.27;;;6.25;;
77520;SDS011;66633;47.628;19.158;2023-06-01T04:26:14;12.23;;;5.97;;
77520;SDS011;66633;47.628;19.158;2023-06-01T04:28:40;11.52;;;5.82;;
77520;SDS011;66633;47.628;19.158;2023-06-01T04:31:09;9.38;;;5.13;;
77520;SDS011;66633;47.628;19.158;2023-06-01T04:33:45;7.93;;;5.00;;
77520;SDS011;66633;47.628;19.158;2023-06-01T04:38:49;10.80;;;5.40;;
77520;SDS011;66633;47.628;19.158;2023-06-01T04:41:21;9.90;;;5.15;;
77520;SDS011;66633;47.628;19.158;2023-06-01T04:43:48;9.55;;;5.10;;
77520;SDS011;66633;47.628;19.158;2023-06-01T04:46:20;9.57;;;5.30;;
77520;SDS011;66633;47.628;19.158;2023-06-01T04:48:48;10.57;;;5.82;;
77520;SDS011;66633;47.628;19.158;2023-06-01T04:51:16;9.32;;;5.43;;
77520;SDS011;66633;47.628;19.158;2023-06-01T04:53:48;10.07;;;5.30;;
77520;SDS011;66633;47.628;19.158;2023-06-01T04:56:19;9.13;;;5.50;;
77520;SDS011;66633;47.628;19.158;2023-06-01T04:58:49;11.27;;;5.47;;
77520;SDS011;66633;47.628;19.158;2023-06-01T05:01:16;10.77;;;5.47;;
77520;SDS011;66633;47.628;19.158;2023-06-01T05:03:42;7.95;;;5.15;;
77520;SDS011;66633;47.628;19.158;2023-06-01T05:06:11;13.38;;;6.00;;
77520;SDS011;66633;47.628;19.158;2023-06-01T05:08:40;9.88;;;5.18;;
77520;SDS011;66633;47.628;19.158;2023-06-01T05:11:07;10.75;;;5.47;;
77520;SDS011;66633;47.628;19.158;2023-06-01T05:13:37;9.15;;;4.88;;
77520;SDS011;66633;47.628;19.158;2023-06-01T05:16:04;10.50;;;4.43;;
77520;SDS011;66633;47.628;19.158;2023-06-01T05:18:30;8.65;;;5.03;;
77520;SDS011;66633;47.628;19.158;2023-06-01T05:20:56;9.57;;;4.90;;
77520;SDS011;66633;47.628;19.158;2023-06-01T05:23:21;9.52;;;5.20;;
77520;SDS011;66633;47.628;19.158;2023-06-01T05:25:48;10.93;;;5.45;;
77520;SDS011;66633;47.628;19.158;2023-06-01T05:28:14;10.73;;;5.05;;
77520;SDS011;66633;47.628;19.158;2023-06-01T05:30:39;12.70;;;4.97;;
77520;SDS011;66633;47.628;19.158;2023-06-01T05:33:05;8.27;;;4.35;;
77520;SDS011;66633;47.628;19.158;2023-06-01T05:35:30;10.23;;;4.07;;
77520;SDS011;66633;47.628;19.158;2023-06-01T05:37:56;9.63;;;4.50;;
77520;SDS011;66633;47.628;19.158;2023-06-01T05:40:21;8.25;;;4.57;;
77520;SDS011;66633;47.628;19.158;2023-06-01T05:42:46;7.80;;;4.65;;
77520;SDS011;66633;47.628;19.158;2023-06-01T05:45:12;12.32;;;4.57;;
77520;SDS011;66633;47.628;19.158;2023-06-01T05:47:37;11.88;;;4.72;;
77520;SDS011;66633;47.628;19.158;2023-06-01T05:50:03;8.70;;;4.50;;
77520;SDS011;66633;47.628;19.158;2023-06-01T05:52:29;7.63;;;4.35;;
77520;SDS011;66633;47.628;19.158;2023-06-01T05:54:55;7.78;;;4.47;;
77520;SDS011;66633;47.628;19.158;2023-06-01T05:57:20;9.73;;;4.60;;
77520;SDS011;66633;47.628;19.158;2023-06-01T05:59:46;10.90;;;4.63;;
77520;SDS011;66633;47.628;19.158;2023-06-01T06:02:12;9.10;;;4.43;;
77520;SDS011;66633;47.628;19.158;2023-06-01T06:04:39;8.73;;;4.47;;
77520;SDS011;66633;47.628;19.158;2023-06-01T06:07:05;16.05;;;4.78;;
77520;SDS011;66633;47.628;19.158;2023-06-01T06:09:30;8.23;;;4.50;;
77520;SDS011;66633;47.628;19.158;2023-06-01T06:11:56;8.73;;;4.40;;
77520;SDS011;66633;47.628;19.158;2023-06-01T06:14:21;11.50;;;4.93;;
77520;SDS011;66633;47.628;19.158;2023-06-01T06:16:47;11.77;;;4.47;;
77520;SDS011;66633;47.628;19.158;2023-06-01T06:19:12;7.88;;;4.57;;
77520;SDS011;66633;47.628;19.158;2023-06-01T06:21:40;8.45;;;4.47;;
77520;SDS011;66633;47.628;19.158;2023-06-01T06:24:06;9.20;;;4.10;;
77520;SDS011;66633;47.628;19.158;2023-06-01T06:26:32;10.48;;;4.80;;
77520;SDS011;66633;47.628;19.158;2023-06-01T06:28:57;8.93;;;4.30;;
77520;SDS011;66633;47.628;19.158;2023-06-01T06:31:23;11.70;;;4.38;;
77520;SDS011;66633;47.628;19.158;2023-06-01T06:33:48;9.15;;;4.38;;
77520;SDS011;66633;47.628;19.158;2023-06-01T06:36:14;10.73;;;4.43;;
77520;SDS011;66633;47.628;19.158;2023-06-01T06:38:41;7.65;;;4.15;;
77520;SDS011;66633;47.628;19.158;2023-06-01T06:41:06;10.07;;;4.45;;
77520;SDS011;66633;47.628;19.158;2023-06-01T06:43:32;11.90;;;4.53;;
77520;SDS011;66633;47.628;19.158;2023-06-01T06:45:57;9.88;;;4.35;;
77520;SDS011;66633;47.628;19.158;2023-06-01T06:48:22;6.90;;;3.90;;
77520;SDS011;66633;47.628;19.158;2023-06-01T06:50:48;6.57;;;3.70;;
77520;SDS011;66633;47.628;19.158;2023-06-01T06:53:13;8.82;;;3.40;;
77520;SDS011;66633;47.628;19.158;2023-06-01T06:55:38;7.78;;;3.20;;
77520;SDS011;66633;47.628;19.158;2023-06-01T06:58:04;7.72;;;3.40;;
77520;SDS011;66633;47.628;19.158;2023-06-01T07:00:29;7.57;;;3.45;;
77520;SDS011;66633;47.628;19.158;2023-06-01T07:02:56;8.50;;;3.53;;
77520;SDS011;66633;47.628;19.158;2023-06-01T07:08:43;7.75;;;3.75;;
77520;SDS011;66633;47.628;19.158;2023-06-01T07:11:09;6.72;;;3.33;;
77520;SDS011;66633;47.628;19.158;2023-06-01T07:13:34;9.73;;;3.88;;
77520;SDS011;66633;47.628;19.158;2023-06-01T07:16:01;8.88;;;3.90;;
77520;SDS011;66633;47.628;19.158;2023-06-01T07:18:27;8.65;;;4.18;;
77520;SDS011;66633;47.628;19.158;2023-06-01T07:20:52;6.28;;;3.63;;
77520;SDS011;66633;47.628;19.158;2023-06-01T07:23:18;8.10;;;3.42;;
77520;SDS011;66633;47.628;19.158;2023-06-01T07:25:43;7.25;;;3.72;;
77520;SDS011;66633;47.628;19.158;2023-06-01T07:28:08;9.18;;;3.67;;
77520;SDS011;66633;47.628;19.158;2023-06-01T07:30:35;7.18;;;3.80;;
77520;SDS011;66633;47.628;19.158;2023-06-01T07:33:00;6.65;;;3.40;;
77520;SDS011;66633;47.628;19.158;2023-06-01T07:35:28;7.10;;;3.65;;
77520;SDS011;66633;47.628;19.158;2023-06-01T07:37:53;9.50;;;4.20;;
77520;SDS011;66633;47.628;19.158;2023-06-01T07:40:19;8.43;;;4.50;;
77520;SDS011;66633;47.628;19.158;2023-06-01T07:42:44;8.10;;;4.20;;
77520;SDS011;66633;47.628;19.158;2023-06-01T07:45:10;8.07;;;4.03;;
77520;SDS011;66633;47.628;19.158;2023-06-01T07:47:36;7.00;;;3.80;;
77520;SDS011;66633;47.628;19.158;2023-06-01T07:50:02;9.60;;;3.72;;
77520;SDS011;66633;47.628;19.158;2023-06-01T07:52:27;8.60;;;3.90;;
77520;SDS011;66633;47.628;19.158;2023-06-01T07:54:53;8.63;;;3.65;;
77520;SDS011;66633;47.628;19.158;2023-06-01T07:57:18;8.02;;;4.28;;
77520;SDS011;66633;47.628;19.158;2023-06-01T07:59:44;7.55;;;4.00;;
77520;SDS011;66633;47.628;19.158;2023-06-01T08:02:09;10.02;;;3.70;;
77520;SDS011;66633;47.628;19.158;2023-06-01T08:04:36;7.07;;;3.40;;
77520;SDS011;66633;47.628;19.158;2023-06-01T08:07:03;7.15;;;3.38;;
77520;SDS011;66633;47.628;19.158;2023-06-01T08:09:31;8.20;;;3.63;;
77520;SDS011;66633;47.628;19.158;2023-06-01T08:11:57;8.32;;;3.45;;
77520;SDS011;66633;47.628;19.158;2023-06-01T08:14:22;7.38;;;3.58;;
77520;SDS011;66633;47.628;19.158;2023-06-01T08:16:48;8.90;;;3.47;;
77520;SDS011;66633;47.628;19.158;2023-06-01T08:19:13;8.27;;;3.17;;
77520;SDS011;66633;47.628;19.158;2023-06-01T08:21:39;8.55;;;3.22;;
77520;SDS011;66633;47.628;19.158;2023-06-01T08:24:06;7.90;;;3.60;;
77520;SDS011;66633;47.628;19.158;2023-06-01T08:26:33;8.07;;;3.70;;
77520;SDS011;66633;47.628;19.158;2023-06-01T08:28:59;7.07;;;3.20;;
77520;SDS011;66633;47.628;19.158;2023-06-01T08:31:25;9.38;;;4.20;;
77520;SDS011;66633;47.628;19.158;2023-06-01T08:33:51;7.15;;;3.90;;
77520;SDS011;66633;47.628;19.158;2023-06-01T08:36:17;7.25;;;3.33;;
77520;SDS011;66633;47.628;19.158;2023-06-01T08:38:43;8.02;;;3.80;;
77520;SDS011;66633;47.628;19.158;2023-06-01T08:41:31;6.97;;;3.78;;
77520;SDS011;66633;47.628;19.158;2023-06-01T08:43:58;7.32;;;3.88;;
77520;SDS011;66633;47.628;19.158;2023-06-01T08:46:27;10.02;;;4.22;;
77520;SDS011;66633;47.628;19.158;2023-06-01T08:48:55;9.70;;;4.10;;
77520;SDS011;66633;47.628;19.158;2023-06-01T08:51:23;7.72;;;3.60;;
77520;SDS011;66633;47.628;19.158;2023-06-01T08:53:49;10.25;;;3.97;;
77520;SDS011;66633;47.628;19.158;2023-06-01T08:56:15;7.38;;;3.55;;
77520;SDS011;66633;47.628;19.158;2023-06-01T08:58:41;7.60;;;3.72;;
77520;SDS011;66633;47.628;19.158;2023-06-01T09:01:08;7.53;;;4.20;;
77520;SDS011;66633;47.628;19.158;2023-06-01T09:03:34;9.68;;;3.97;;
77520;SDS011;66633;47.628;19.158;2023-06-01T09:06:00;8.27;;;4.28;;
77520;SDS011;66633;47.628;19.158;2023-06-01T09:08:25;6.70;;;3.53;;
77520;SDS011;66633;47.628;19.158;2023-06-01T09:10:50;8.63;;;3.83;;
77520;SDS011;66633;47.628;19.158;2023-06-01T09:16:02;8.38;;;4.25;;
77520;SDS011;66633;47.628;19.158;2023-06-01T09:18:27;9.52;;;4.30;;
77520;SDS011;66633;47.628;19.158;2023-06-01T09:20:53;7.93;;;3.95;;
77520;SDS011;66633;47.628;19.158;2023-06-01T09:23:28;8.95;;;4.40;;
77520;SDS011;66633;47.628;19.158;2023-06-01T09:31:35;7.80;;;4.13;;
77520;SDS011;66633;47.628;19.158;2023-06-01T09:34:00;8.77;;;3.75;;
77520;SDS011;66633;47.628;19.158;2023-06-01T09:36:26;8.10;;;4.43;;
77520;SDS011;66633;47.628;19.158;2023-06-01T09:38:55;9.57;;;3.95;;
77520;SDS011;66633;47.628;19.158;2023-06-01T09:41:26;7.68;;;4.57;;
77520;SDS011;66633;47.628;19.158;2023-06-01T09:43:52;6.93;;;4.45;;
77520;SDS011;66633;47.628;19.158;2023-06-01T09:46:17;6.95;;;3.92;;
77520;SDS011;66633;47.628;19.158;2023-06-01T09:48:43;7.97;;;4.07;;
77520;SDS011;66633;47.628;19.158;2023-06-01T09:51:23;10.63;;;4.90;;
77520;SDS011;66633;47.628;19.158;2023-06-01T09:53:54;8.45;;;4.45;;
77520;SDS011;66633;47.628;19.158;2023-06-01T09:56:19;9.48;;;4.10;;
77520;SDS011;66633;47.628;19.158;2023-06-01T09:58:45;7.82;;;4.10;;
77520;SDS011;66633;47.628;19.158;2023-06-01T10:01:11;8.10;;;3.92;;
77520;SDS011;66633;47.628;19.158;2023-06-01T10:03:41;8.05;;;4.50;;
77520;SDS011;66633;47.628;19.158;2023-06-01T10:06:07;8.27;;;4.45;;
77520;SDS011;66633;47.628;19.158;2023-06-01T10:08:36;9.95;;;4.75;;
77520;SDS011;66633;47.628;19.158;2023-06-01T10:11:01;7.47;;;4.10;;
77520;SDS011;66633;47.628;19.158;2023-06-01T10:13:27;7.65;;;4.32;;
77520;SDS011;66633;47.628;19.158;2023-06-01T10:15:54;8.68;;;4.40;;
77520;SDS011;66633;47.628;19.158;2023-06-01T10:18:20;9.35;;;5.50;;
77520;SDS011;66633;47.628;19.158;2023-06-01T10:20:46;9.27;;;4.78;;
77520;SDS011;66633;47.628;19.158;2023-06-01T10:23:11;7.63;;;5.07;;
77520;SDS011;66633;47.628;19.158;2023-06-01T10:25:40;8.30;;;4.80;;
77520;SDS011;66633;47.628;19.158;2023-06-01T10:28:11;10.23;;;5.07;;
77520;SDS011;66633;47.628;19.158;2023-06-01T10:33:03;9.88;;;5.53;;
77520;SDS011;66633;47.628;19.158;2023-06-01T10:40:35;9.15;;;5.03;;
77520;SDS011;66633;47.628;19.158;2023-06-01T10:43:02;8.25;;;5.38;;
77520;SDS011;66633;47.628;19.158;2023-06-01T10:48:11;9.10;;;5.78;;
77520;SDS011;66633;47.628;19.158;2023-06-01T10:50:37;9.55;;;5.10;;
77520;SDS011;66633;47.628;19.158;2023-06-01T10:53:24;10.55;;;5.90;;
77520;SDS011;66633;47.628;19.158;2023-06-01T10:58:44;9.52;;;4.90;;
77520;SDS011;66633;47.628;19.158;2023-06-01T11:01:10;9.07;;;5.65;;
77520;SDS011;66633;47.628;19.158;2023-06-01T11:03:46;9.55;;;5.53;;
77520;SDS011;66633;47.628;19.158;2023-06-01T11:06:30;9.55;;;5.03;;
77520;SDS011;66633;47.628;19.158;2023-06-01T11:08:59;8.32;;;5.40;;
77520;SDS011;66633;47.628;19.158;2023-06-01T11:11:59;8.90;;;5.20;;
77520;SDS011;66633;47.628;19.158;2023-06-01T11:14:18;10.00;;;5.22;;
77520;SDS011;66633;47.628;19.158;2023-06-01T11:16:44;9.48;;;4.85;;
77520;SDS011;66633;47.628;19.158;2023-06-01T11:19:10;9.30;;;5.50;;
77520;SDS011;66633;47.628;19.158;2023-06-01T11:21:43;8.80;;;5.10;;
77520;SDS011;66633;47.628;19.158;2023-06-01T11:24:10;8.95;;;5.20;;
77520;SDS011;66633;47.628;19.158;2023-06-01T11:26:38;8.30;;;5.00;;
77520;SDS011;66633;47.628;19.158;2023-06-01T11:29:09;8.60;;;4.80;;
77520;SDS011;66633;47.628;19.158;2023-06-01T11:31:40;8.77;;;5.18;;
77520;SDS011;66633;47.628;19.158;2023-06-01T11:34:10;12.75;;;4.80;;
77520;SDS011;66633;47.628;19.158;2023-06-01T11:36:41;8.48;;;5.35;;
77520;SDS011;66633;47.628;19.158;2023-06-01T11:39:24;9.02;;;5.68;;
77520;SDS011;66633;47.628;19.158;2023-06-01T11:44:58;10.95;;;5.57;;
77520;SDS011;66633;47.628;19.158;2023-06-01T11:47:27;9.90;;;5.80;;
77520;SDS011;66633;47.628;19.158;2023-06-01T11:49:54;8.60;;;5.43;;
77520;SDS011;66633;47.628;19.158;2023-06-01T11:52:20;7.75;;;5.07;;
77520;SDS011;66633;47.628;19.158;2023-06-01T11:54:46;10.30;;;5.28;;
77520;SDS011;66633;47.628;19.158;2023-06-01T11:57:12;9.48;;;5.53;;
77520;SDS011;66633;47.628;19.158;2023-06-01T11:59:44;7.82;;;5.05;;
77520;SDS011;66633;47.628;19.158;2023-06-01T12:07:31;8.25;;;5.13;;
77520;SDS011;66633;47.628;19.158;2023-06-01T12:09:56;8.65;;;5.05;;
77520;SDS011;66633;47.628;19.158;2023-06-01T12:12:23;10.00;;;6.28;;
77520;SDS011;66633;47.628;19.158;2023-06-01T12:14:50;8.88;;;5.50;;
77520;SDS011;66633;47.628;19.158;2023-06-01T12:17:16;8.55;;;5.00;;
77520;SDS011;66633;47.628;19.158;2023-06-01T12:19:45;9.77;;;5.43;;
77520;SDS011;66633;47.628;19.158;2023-06-01T12:22:12;8.02;;;5.35;;
77520;SDS011;66633;47.628;19.158;2023-06-01T12:24:38;6.72;;;4.68;;
77520;SDS011;66633;47.628;19.158;2023-06-01T12:27:12;7.85;;;4.55;;
77520;SDS011;66633;47.628;19.158;2023-06-01T12:29:45;9.38;;;5.57;;
77520;SDS011;66633;47.628;19.158;2023-06-01T12:32:13;8.57;;;5.47;;
77520;SDS011;66633;47.628;19.158;2023-06-01T12:34:40;8.25;;;4.97;;
77520;SDS011;66633;47.628;19.158;2023-06-01T12:37:18;8.27;;;5.80;;
77520;SDS011;66633;47.628;19.158;2023-06-01T12:39:51;9.25;;;5.75;;
77520;SDS011;66633;47.628;19.158;2023-06-01T12:42:19;8.40;;;5.88;;
77520;SDS011;66633;47.628;19.158;2023-06-01T12:44:58;10.05;;;5.78;;
77520;SDS011;66633;47.628;19.158;2023-06-01T12:47:24;9.02;;;5.70;;
77520;SDS011;66633;47.628;19.158;2023-06-01T12:50:02;10.02;;;5.60;;
77520;SDS011;66633;47.628;19.158;2023-06-01T12:52:30;8.32;;;4.95;;
77520;SDS011;66633;47.628;19.158;2023-06-01T12:54:56;8.85;;;5.28;;
77520;SDS011;66633;47.628;19.158;2023-06-01T12:57:22;8.88;;;5.57;;
77520;SDS011;66633;47.628;19.158;2023-06-01T12:59:47;9.90;;;5.75;;
77520;SDS011;66633;47.628;19.158;2023-06-01T13:02:13;8.55;;;5.70;;
77520;SDS011;66633;47.628;19.158;2023-06-01T13:04:39;10.05;;;6.43;;
77520;SDS011;66633;47.628;19.158;2023-06-01T13:07:04;8.30;;;5.53;;
77520;SDS011;66633;47.628;19.158;2023-06-01T13:09:30;12.25;;;5.90;;
77520;SDS011;66633;47.628;19.158;2023-06-01T13:11:56;11.23;;;6.28;;
77520;SDS011;66633;47.628;19.158;2023-06-01T13:14:21;7.68;;;5.50;;
77520;SDS011;66633;47.628;19.158;2023-06-01T13:16:47;8.68;;;5.45;;
77520;SDS011;66633;47.628;19.158;2023-06-01T13:19:12;8.30;;;5.55;;
77520;SDS011;66633;47.628;19.158;2023-06-01T13:21:38;10.70;;;6.70;;
77520;SDS011;66633;47.628;19.158;2023-06-01T13:24:03;9.02;;;5.30;;
77520;SDS011;66633;47.628;19.158;2023-06-01T13:26:30;7.03;;;5.03;;
77520;SDS011;66633;47.628;19.158;2023-06-01T13:28:56;8.15;;;5.40;;
77520;SDS011;66633;47.628;19.158;2023-06-01T13:31:22;8.55;;;5.38;;
77520;SDS011;66633;47.628;19.158;2023-06-01T13:33:48;9.35;;;6.07;;
77520;SDS011;66633;47.628;19.158;2023-06-01T13:36:13;9.32;;;5.82;;
77520;SDS011;66633;47.628;19.158;2023-06-01T13:38:40;8.20;;;5.50;;
77520;SDS011;66633;47.628;19.158;2023-06-01T13:41:05;8.70;;;5.57;;
77520;SDS011;66633;47.628;19.158;2023-06-01T13:43:31;8.15;;;5.43;;
77520;SDS011;66633;47.628;19.158;2023-06-01T13:45:56;9.45;;;5.90;;
77520;SDS011;66633;47.628;19.158;2023-06-01T13:48:21;10.27;;;6.25;;
77520;SDS011;66633;47.628;19.158;2023-06-01T13:50:47;9.30;;;5.72;;
77520;SDS011;66633;47.628;19.158;2023-06-01T13:53:12;8.88;;;6.07;;
77520;SDS011;66633;47.628;19.158;2023-06-01T13:55:38;7.93;;;5.25;;
77520;SDS011;66633;47.628;19.158;2023-06-01T13:58:04;9.43;;;6.40;;
77520;SDS011;66633;47.628;19.158;2023-06-01T14:00:30;8.55;;;5.72;;
77520;SDS011;66633;47.628;19.158;2023-06-01T14:02:55;7.70;;;5.15;;
77520;SDS011;66633;47.628;19.158;2023-06-01T14:05:21;9.63;;;5.47;;
77520;SDS011;66633;47.628;19.158;2023-06-01T14:07:46;8.77;;;5.85;;
77520;SDS011;66633;47.628;19.158;2023-06-01T14:10:12;12.38;;;5.50;;
77520;SDS011;66633;47.628;19.158;2023-06-01T14:12:39;8.65;;;6.03;;
77520;SDS011;66633;47.628;19.158;2023-06-01T14:15:05;8.88;;;6.00;;
77520;SDS011;66633;47.628;19.158;2023-06-01T14:17:31;8.50;;;5.35;;
77520;SDS011;66633;47.628;19.158;2023-06-01T14:19:56;7.55;;;5.25;;
77520;SDS011;66633;47.628;19.158;2023-06-01T14:22:21;8.20;;;5.25;;
77520;SDS011;66633;47.628;19.158;2023-06-01T14:30:00;8.15;;;4.93;;
77520;SDS011;66633;47.628;19.158;2023-06-01T14:32:28;9.13;;;5.57;;
77520;SDS011;66633;47.628;19.158;2023-06-01T14:34:53;8.38;;;4.93;;
77520;SDS011;66633;47.628;19.158;2023-06-01T14:37:19;9.13;;;5.25;;
77520;SDS011;66633;47.628;19.158;2023-06-01T14:39:53;9.73;;;5.53;;
77520;SDS011;66633;47.628;19.158;2023-06-01T14:42:19;10.85;;;5.88;;
77520;SDS011;66633;47.628;19.158;2023-06-01T14:44:45;10.13;;;6.40;;
77520;SDS011;66633;47.628;19.158;2023-06-01T14:47:10;9.05;;;6.18;;
77520;SDS011;66633;47.628;19.158;2023-06-01T14:49:37;8.95;;;4.95;;
77520;SDS011;66633;47.628;19.158;2023-06-01T14:52:03;8.80;;;5.43;;
77520;SDS011;66633;47.628;19.158;2023-06-01T14:54:28;9.07;;;5.30;;
77520;SDS011;66633;47.628;19.158;2023-06-01T14:56:54;9.20;;;5.28;;
77520;SDS011;66633;47.628;19.158;2023-06-01T14:59:20;7.82;;;5.05;;
77520;SDS011;66633;47.628;19.158;2023-06-01T15:01:45;8.20;;;5.60;;
77520;SDS011;66633;47.628;19.158;2023-06-01T15:04:11;9.43;;;5.85;;
77520;SDS011;66633;47.628;19.158;2023-06-01T15:06:36;7.75;;;5.43;;
77520;SDS011;66633;47.628;19.158;2023-06-01T15:09:05;8.80;;;5.20;;
77520;SDS011;66633;47.628;19.158;2023-06-01T15:11:31;9.95;;;6.53;;
77520;SDS011;66633;47.628;19.158;2023-06-01T15:13:56;7.97;;;5.13;;
77520;SDS011;66633;47.628;19.158;2023-06-01T15:16:22;7.20;;;4.85;;
77520;SDS011;66633;47.628;19.158;2023-06-01T15:18:47;9.43;;;5.68;;
77520;SDS011;66633;47.628;19.158;2023-06-01T15:21:13;7.63;;;4.70;;
77520;SDS011;66633;47.628;19.158;2023-06-01T15:23:39;8.57;;;6.15;;